Time;durP1;ratioP1;P1;durP2;ratioP2;P2;SDS_P1;SDS_P2;PMS_P1;PMS_P2;Temp;Humidity;BMP_temperature;BMP_pressure;BME280_temperature;BME280_humidity;BME280_pressure;Samples;Min_cycle;Max_cycle;Signal;HPM_P1;HPM_P2
2023/10/03 00:02:07;;;;;;;40.10;6.75;;;;;;;;;;5062092;28;20048;-54
2023/10/03 00:04:34;;;;;;;60.60;8.38;;;;;;;;;;5064637;28;20083;-54
2023/10/03 00:07:01;;;;;;;31.50;6.40;;;;;;;;;;5067724;28;20542;-54
2023/10/03 00:09:28;;;;;;;27.05;5.75;;;;;;;;;;5059046;28;20063;-55
2023/10/03 00:11:55;;;;;;;41.25;6.82;;;;;;;;;;5063303;28;20040;-54
2023/10/03 00:14:21;;;;;;;45.63;7.72;;;;;;;;;;5062600;28;20493;-53
2023/10/03 00:16:48;;;;;;;85.85;9.55;;;;;;;;;;5064399;28;20044;-55
2023/10/03 00:19:15;;;;;;;34.58;6.95;;;;;;;;;;5068589;28;20041;-51
2023/10/03 00:21:41;;;;;;;39.42;7.05;;;;;;;;;;5061417;28;20045;-52
2023/10/03 00:24:08;;;;;;;37.75;7.45;;;;;;;;;;5058868;28;20481;-50
2023/10/03 00:26:35;;;;;;;41.70;6.75;;;;;;;;;;5059077;28;20039;-54
2023/10/03 00:29:03;;;;;;;35.75;7.10;;;;;;;;;;5059316;28;20367;-53
2023/10/03 00:31:30;;;;;;;28.88;6.55;;;;;;;;;;5061024;28;20418;-54
2023/10/03 00:33:57;;;;;;;26.80;6.78;;;;;;;;;;5070688;28;20051;-55
2023/10/03 00:36:24;;;;;;;34.30;6.97;;;;;;;;;;5056597;28;20402;-53
2023/10/03 00:38:52;;;;;;;44.70;6.95;;;;;;;;;;5061155;28;20044;-54
2023/10/03 00:41:19;;;;;;;26.13;7.07;;;;;;;;;;5058859;28;20471;-55
2023/10/03 00:43:53;;;;;;;71.65;9.52;;;;;;;;;;5056843;28;20106;-55
2023/10/03 00:46:21;;;;;;;25.80;6.70;;;;;;;;;;5055699;28;20648;-51
2023/10/03 00:48:49;;;;;;;29.75;7.18;;;;;;;;;;5055225;28;20049;-52
2023/10/03 00:51:16;;;;;;;27.60;7.20;;;;;;;;;;5062876;28;20044;-54
2023/10/03 00:53:43;;;;;;;51.90;8.30;;;;;;;;;;5058382;28;20049;-56
2023/10/03 00:56:10;;;;;;;50.85;8.77;;;;;;;;;;5057268;28;20048;-55
2023/10/03 00:58:37;;;;;;;68.45;8.77;;;;;;;;;;5059616;28;20102;-56
2023/10/03 01:01:03;;;;;;;20.73;6.13;;;;;;;;;;5056599;28;20068;-52
2023/10/03 01:03:32;;;;;;;37.53;8.93;;;;;;;;;;5059883;28;20055;-53
2023/10/03 01:06:10;;;;;;;38.78;7.80;;;;;;;;;;5061396;28;20121;-53
2023/10/03 01:08:40;;;;;;;35.30;7.78;;;;;;;;;;5060776;28;20044;-54
2023/10/03 01:11:07;;;;;;;51.40;9.52;;;;;;;;;;5059054;28;20083;-55
2023/10/03 01:13:35;;;;;;;46.05;8.18;;;;;;;;;;5071886;28;20049;-54
2023/10/03 01:16:05;;;;;;;32.70;8.15;;;;;;;;;;5074781;28;20380;-56
2023/10/03 01:18:32;;;;;;;42.10;8.18;;;;;;;;;;5059186;28;20476;-55
2023/10/03 01:21:00;;;;;;;42.58;8.27;;;;;;;;;;5063022;28;20400;-56
2023/10/03 01:23:39;;;;;;;30.10;7.85;;;;;;;;;;5061536;28;20060;-51
2023/10/03 01:26:09;;;;;;;45.67;8.63;;;;;;;;;;5058779;28;20628;-55
2023/10/03 01:28:38;;;;;;;55.17;8.43;;;;;;;;;;5065446;28;20668;-51
2023/10/03 01:31:05;;;;;;;34.05;7.88;;;;;;;;;;5062954;28;20485;-58
2023/10/03 01:33:33;;;;;;;36.30;6.90;;;;;;;;;;5062401;28;20502;-52
2023/10/03 01:36:03;;;;;;;54.90;9.80;;;;;;;;;;5062713;28;20151;-53
2023/10/03 01:38:30;;;;;;;43.67;7.72;;;;;;;;;;5064687;28;20461;-56
2023/10/03 01:40:57;;;;;;;77.45;9.90;;;;;;;;;;5069112;28;20429;-53
2023/10/03 01:43:24;;;;;;;38.72;6.65;;;;;;;;;;5066117;28;20037;-52
2023/10/03 01:45:52;;;;;;;32.92;7.43;;;;;;;;;;5059170;28;20394;-56
2023/10/03 01:48:19;;;;;;;19.23;6.80;;;;;;;;;;5058762;28;20708;-55
2023/10/03 01:50:46;;;;;;;37.13;7.85;;;;;;;;;;5062104;28;20095;-54
2023/10/03 01:53:12;;;;;;;34.05;7.43;;;;;;;;;;5060900;28;20411;-53
2023/10/03 01:55:39;;;;;;;63.03;8.93;;;;;;;;;;5062937;28;20482;-55
2023/10/03 01:58:06;;;;;;;26.45;6.78;;;;;;;;;;5062261;28;20048;-52
2023/10/03 02:03:34;;;;;;;22.55;6.75;;;;;;;;;;4983715;28;20054;-59
2023/10/03 02:06:03;;;;;;;35.80;7.57;;;;;;;;;;4986520;28;20053;-57
2023/10/03 02:08:33;;;;;;;34.53;7.93;;;;;;;;;;4967718;28;20130;-59
2023/10/03 02:11:05;;;;;;;;;;;;;;;;;;4969817;28;20055;-59
2023/10/03 02:13:34;;;;;;;25.25;7.00;;;;;;;;;;4984290;28;19933;-62
2023/10/03 02:16:01;;;;;;;28.55;7.03;;;;;;;;;;4985628;28;20054;-58
2023/10/03 02:18:28;;;;;;;31.27;7.57;;;;;;;;;;4967931;28;20498;-59
2023/10/03 02:21:01;;;;;;;31.13;6.97;;;;;;;;;;4986828;28;20058;-55
2023/10/03 02:23:28;;;;;;;35.35;8.00;;;;;;;;;;4967281;28;20038;-60
2023/10/03 02:26:13;;;;;;;54.67;8.40;;;;;;;;;;4985006;28;20473;-57
2023/10/03 02:28:40;;;;;;;73.00;9.40;;;;;;;;;;4985082;28;20050;-61
2023/10/03 02:31:08;;;;;;;35.35;7.88;;;;;;;;;;4985634;28;20061;-55
2023/10/03 02:33:36;;;;;;;31.13;8.02;;;;;;;;;;4988425;28;20485;-58
2023/10/03 02:36:05;;;;;;;28.65;7.72;;;;;;;;;;4967228;28;20175;-60
2023/10/03 02:38:36;;;;;;;22.98;7.53;;;;;;;;;;4984767;28;20067;-58
2023/10/03 02:41:06;;;;;;;44.55;8.35;;;;;;;;;;4968187;28;20129;-60
2023/10/03 02:43:43;;;;;;;44.95;8.18;;;;;;;;;;4985649;28;20125;-56
2023/10/03 02:46:20;;;;;;;42.60;7.97;;;;;;;;;;4968639;28;20081;-55
2023/10/03 02:48:50;;;;;;;30.13;7.47;;;;;;;;;;4983983;28;20070;-53
2023/10/03 02:51:17;;;;;;;29.02;7.45;;;;;;;;;;4982291;28;20047;-60
2023/10/03 02:53:46;;;;;;;35.10;8.07;;;;;;;;;;4987147;28;20051;-53
2023/10/03 02:56:14;;;;;;;24.60;7.85;;;;;;;;;;4982985;28;20050;-59
2023/10/03 02:58:41;;;;;;;80.30;11.10;;;;;;;;;;4984142;28;20061;-55
2023/10/03 03:01:09;;;;;;;29.52;9.13;;;;;;;;;;4983217;28;20133;-56
2023/10/03 03:03:36;;;;;;;37.00;9.32;;;;;;;;;;4984498;28;20096;-58
2023/10/03 03:06:11;;;;;;;38.25;9.05;;;;;;;;;;4986823;28;20046;-60
2023/10/03 03:08:39;;;;;;;31.45;9.52;;;;;;;;;;4983191;28;20066;-55
2023/10/03 03:11:09;;;;;;;39.13;8.70;;;;;;;;;;4984195;28;20083;-58
2023/10/03 03:13:36;;;;;;;30.90;8.50;;;;;;;;;;4982137;28;20046;-52
2023/10/03 03:16:04;;;;;;;30.27;10.07;;;;;;;;;;4981968;28;20055;-59
2023/10/03 03:18:39;;;;;;;33.00;8.60;;;;;;;;;;4983245;28;20042;-57
2023/10/03 03:21:13;;;;;;;31.85;8.00;;;;;;;;;;4987405;28;20042;-57
2023/10/03 03:23:56;;;;;;;32.75;8.18;;;;;;;;;;4986400;28;20074;-59
2023/10/03 03:26:36;;;;;;;39.15;8.55;;;;;;;;;;4984068;28;20118;-60
2023/10/03 03:29:20;;;;;;;36.42;8.68;;;;;;;;;;4983924;28;20064;-59
2023/10/03 03:31:50;;;;;;;78.43;11.15;;;;;;;;;;4984421;28;20078;-58
2023/10/03 03:34:19;;;;;;;30.77;9.20;;;;;;;;;;4984671;28;20057;-55
2023/10/03 03:36:46;;;;;;;32.30;8.20;;;;;;;;;;4981000;28;20053;-60
2023/10/03 03:39:15;;;;;;;63.10;9.35;;;;;;;;;;4979664;28;20047;-58
2023/10/03 03:41:43;;;;;;;32.83;8.30;;;;;;;;;;4986088;28;20157;-59
2023/10/03 03:44:13;;;;;;;44.53;9.98;;;;;;;;;;4985032;28;20038;-59
2023/10/03 03:46:43;;;;;;;87.68;10.05;;;;;;;;;;4983712;28;20097;-54
2023/10/03 03:49:10;;;;;;;45.03;9.75;;;;;;;;;;4980999;28;20043;-55
2023/10/03 03:51:37;;;;;;;40.45;9.02;;;;;;;;;;4984420;28;20050;-58
2023/10/03 03:54:06;;;;;;;18.30;7.82;;;;;;;;;;4987990;28;20045;-59
2023/10/03 03:56:33;;;;;;;35.85;8.50;;;;;;;;;;4983878;28;20133;-58
2023/10/03 03:59:00;;;;;;;51.33;10.25;;;;;;;;;;4982998;28;20117;-59
2023/10/03 04:01:27;;;;;;;37.30;9.48;;;;;;;;;;4983105;28;20043;-57
2023/10/03 04:03:58;;;;;;;25.65;8.40;;;;;;;;;;4982552;28;20078;-59
2023/10/03 04:06:25;;;;;;;30.55;8.38;;;;;;;;;;4983175;28;20404;-57
2023/10/03 04:08:52;;;;;;;31.33;8.85;;;;;;;;;;4968008;28;20404;-57
2023/10/03 04:11:35;;;;;;;36.17;8.70;;;;;;;;;;4982711;28;20166;-56
2023/10/03 04:14:04;;;;;;;52.67;10.40;;;;;;;;;;4983850;28;20054;-52
2023/10/03 04:16:38;;;;;;;36.45;9.40;;;;;;;;;;4985301;28;20050;-57
2023/10/03 04:19:06;;;;;;;32.47;8.88;;;;;;;;;;4984520;28;20038;-58
2023/10/03 04:21:33;;;;;;;35.97;8.50;;;;;;;;;;4986047;28;20081;-57
2023/10/03 04:23:59;;;;;;;35.55;8.93;;;;;;;;;;4985295;28;20053;-55
2023/10/03 04:26:27;;;;;;;48.63;10.25;;;;;;;;;;4982194;28;20057;-60
2023/10/03 04:28:54;;;;;;;66.35;11.00;;;;;;;;;;4965374;28;21902;-58
2023/10/03 04:31:21;;;;;;;41.13;9.70;;;;;;;;;;4982574;28;20519;-57
2023/10/03 04:33:48;;;;;;;27.77;8.80;;;;;;;;;;4967679;28;20639;-58
2023/10/03 04:36:15;;;;;;;31.88;9.07;;;;;;;;;;4983323;28;20038;-59
2023/10/03 04:38:42;;;;;;;49.90;10.20;;;;;;;;;;4984004;28;20444;-56
2023/10/03 04:41:09;;;;;;;29.20;8.52;;;;;;;;;;4983485;28;20739;-54
2023/10/03 04:43:36;;;;;;;29.17;8.57;;;;;;;;;;4984243;28;20407;-58
2023/10/03 04:46:04;;;;;;;27.08;8.38;;;;;;;;;;4968785;28;20117;-59
2023/10/03 04:48:31;;;;;;;27.13;8.63;;;;;;;;;;4982639;28;20070;-56
2023/10/03 04:50:59;;;;;;;29.85;9.10;;;;;;;;;;4982787;28;20125;-55
2023/10/03 04:53:26;;;;;;;48.03;9.85;;;;;;;;;;4967533;28;20054;-57
2023/10/03 04:55:53;;;;;;;97.10;12.25;;;;;;;;;;4982215;28;20515;-59
2023/10/03 04:58:21;;;;;;;33.65;8.88;;;;;;;;;;4984209;28;20122;-54
2023/10/03 05:00:49;;;;;;;28.98;8.68;;;;;;;;;;4984140;28;20437;-58
2023/10/03 05:03:19;;;;;;;39.88;9.18;;;;;;;;;;4978659;28;20113;-50
2023/10/03 05:05:48;;;;;;;43.08;9.10;;;;;;;;;;4981296;28;20058;-58
2023/10/03 05:08:18;;;;;;;37.70;8.60;;;;;;;;;;4984748;28;20434;-58
2023/10/03 05:10:45;;;;;;;84.53;11.07;;;;;;;;;;4965685;28;20043;-55
2023/10/03 05:13:13;;;;;;;44.67;9.30;;;;;;;;;;4985247;28;20544;-58
2023/10/03 05:15:40;;;;;;;23.52;8.00;;;;;;;;;;4985592;28;20416;-57
2023/10/03 05:18:07;;;;;;;29.67;7.78;;;;;;;;;;4982461;28;20484;-52
2023/10/03 05:20:37;;;;;;;139.55;14.38;;;;;;;;;;4989879;28;20539;-60
2023/10/03 05:23:05;;;;;;;55.15;10.77;;;;;;;;;;4982975;28;20404;-59
2023/10/03 05:25:36;;;;;;;57.22;9.68;;;;;;;;;;4984854;28;20031;-58
2023/10/03 05:28:06;;;;;;;50.13;9.20;;;;;;;;;;4985217;28;20109;-60
2023/10/03 05:30:35;;;;;;;45.88;9.00;;;;;;;;;;4983469;28;20126;-54
2023/10/03 05:33:04;;;;;;;48.63;10.48;;;;;;;;;;4985937;28;20431;-55
2023/10/03 05:35:31;;;;;;;37.95;9.57;;;;;;;;;;4983351;28;20515;-57
2023/10/03 05:38:01;;;;;;;53.58;9.95;;;;;;;;;;4981888;28;20117;-59
2023/10/03 05:40:28;;;;;;;38.83;9.57;;;;;;;;;;4981578;28;20485;-59
2023/10/03 05:42:57;;;;;;;44.03;8.93;;;;;;;;;;4981775;28;20077;-60
2023/10/03 05:45:24;;;;;;;37.30;8.60;;;;;;;;;;4987707;28;20046;-57
2023/10/03 05:47:52;;;;;;;32.28;8.02;;;;;;;;;;4982224;28;20070;-59
2023/10/03 05:50:23;;;;;;;38.70;8.35;;;;;;;;;;4979946;28;20043;-61
2023/10/03 05:52:51;;;;;;;79.00;10.68;;;;;;;;;;4980881;28;20043;-60
2023/10/03 05:55:17;;;;;;;39.28;8.25;;;;;;;;;;4978821;28;20047;-58
2023/10/03 05:57:44;;;;;;;36.50;7.38;;;;;;;;;;4986365;28;20049;-60
2023/10/03 06:00:17;;;;;;;37.10;6.07;;;;;;;;;;4981518;28;20514;-56
2023/10/03 06:02:47;;;;;;;49.00;8.18;;;;;;;;;;4964117;28;20063;-54
2023/10/03 06:05:15;;;;;;;35.67;6.90;;;;;;;;;;4982858;28;20100;-55
2023/10/03 06:07:43;;;;;;;147.63;12.68;;;;;;;;;;4983891;28;20043;-59
2023/10/03 06:10:15;;;;;;;59.05;8.40;;;;;;;;;;4968346;28;20408;-57
2023/10/03 06:12:43;;;;;;;43.13;7.57;;;;;;;;;;4986231;28;20496;-59
2023/10/03 06:15:11;;;;;;;34.58;6.72;;;;;;;;;;4985389;28;20038;-56
2023/10/03 06:17:37;;;;;;;35.50;6.75;;;;;;;;;;4968545;28;20057;-56
2023/10/03 06:20:05;;;;;;;27.58;5.68;;;;;;;;;;4986420;28;20054;-56
2023/10/03 06:22:33;;;;;;;42.63;6.70;;;;;;;;;;4987717;28;20065;-57
2023/10/03 06:25:00;;;;;;;25.50;5.43;;;;;;;;;;4986656;28;20420;-60
2023/10/03 06:27:31;;;;;;;41.53;5.93;;;;;;;;;;4981199;28;20051;-59
2023/10/03 06:29:58;;;;;;;47.00;6.15;;;;;;;;;;4985720;28;20053;-61
2023/10/03 06:32:24;;;;;;;55.55;7.97;;;;;;;;;;4986270;28;20038;-60
2023/10/03 06:34:52;;;;;;;96.68;9.60;;;;;;;;;;4967380;28;20097;-61
2023/10/03 06:37:19;;;;;;;38.88;5.97;;;;;;;;;;4987243;28;20485;-59
2023/10/03 06:39:47;;;;;;;39.88;6.25;;;;;;;;;;4984061;28;20093;-60
2023/10/03 06:42:13;;;;;;;25.58;5.30;;;;;;;;;;4981219;28;20050;-57
2023/10/03 06:44:43;;;;;;;24.83;5.43;;;;;;;;;;4985797;28;20043;-59
2023/10/03 06:47:10;;;;;;;43.50;6.55;;;;;;;;;;4984627;28;20043;-54
2023/10/03 06:49:37;;;;;;;26.55;5.40;;;;;;;;;;4986190;28;20046;-57
2023/10/03 06:52:04;;;;;;;19.80;5.18;;;;;;;;;;4983427;28;20044;-55
2023/10/03 06:54:30;;;;;;;56.63;6.93;;;;;;;;;;4983039;28;20100;-58
2023/10/03 06:56:57;;;;;;;42.85;6.30;;;;;;;;;;4985311;28;20066;-59
2023/10/03 06:59:24;;;;;;;35.65;6.43;;;;;;;;;;4985531;28;20043;-57
2023/10/03 07:01:51;;;;;;;50.67;6.70;;;;;;;;;;4983390;28;20085;-60
2023/10/03 07:04:18;;;;;;;132.93;11.00;;;;;;;;;;4984667;28;20121;-53
2023/10/03 07:06:45;;;;;;;28.67;5.30;;;;;;;;;;4984973;28;20053;-59
2023/10/03 07:09:13;;;;;;;36.60;6.10;;;;;;;;;;4986121;28;20496;-58
2023/10/03 07:11:40;;;;;;;37.30;6.22;;;;;;;;;;4986579;28;20137;-60
2023/10/03 07:14:11;;;;;;;35.50;5.85;;;;;;;;;;4984222;28;20038;-54
2023/10/03 07:16:38;;;;;;;34.90;6.45;;;;;;;;;;4984117;28;20125;-69
2023/10/03 07:19:05;;;;;;;21.77;5.40;;;;;;;;;;4986045;28;20049;-58
2023/10/03 07:21:34;;;;;;;18.83;4.90;;;;;;;;;;4981204;28;20038;-59
2023/10/03 07:24:01;;;;;;;27.58;5.10;;;;;;;;;;4989066;28;20141;-53
2023/10/03 07:26:28;;;;;;;32.03;5.22;;;;;;;;;;4983576;28;20101;-60
2023/10/03 07:29:02;;;;;;;82.03;8.57;;;;;;;;;;4985207;28;20046;-58
2023/10/03 07:31:32;;;;;;;32.88;5.72;;;;;;;;;;4982735;28;20043;-59
2023/10/03 07:33:59;;;;;;;24.95;5.10;;;;;;;;;;4964486;28;20046;-56
2023/10/03 07:36:26;;;;;;;28.15;5.70;;;;;;;;;;4987800;28;20042;-57
2023/10/03 07:38:53;;;;;;;42.25;5.85;;;;;;;;;;4967966;28;20055;-60
2023/10/03 07:41:21;;;;;;;25.90;5.78;;;;;;;;;;4985136;28;20041;-55
2023/10/03 07:43:49;;;;;;;59.05;7.50;;;;;;;;;;4983623;28;20050;-61
2023/10/03 07:46:22;;;;;;;23.92;5.05;;;;;;;;;;4980807;28;20050;-61
2023/10/03 07:48:52;;;;;;;31.52;6.50;;;;;;;;;;4987937;28;20074;-60
2023/10/03 07:51:20;;;;;;;34.35;5.43;;;;;;;;;;4965774;28;20138;-61
2023/10/03 07:53:51;;;;;;;40.42;6.07;;;;;;;;;;4983127;28;20065;-56
2023/10/03 07:56:42;;;;;;;27.58;5.22;;;;;;;;;;4983746;28;20050;-55
2023/10/03 07:59:09;;;;;;;21.83;5.38;;;;;;;;;;4984901;28;20078;-62
2023/10/03 08:01:38;;;;;;;46.17;5.65;;;;;;;;;;4964820;28;20061;-60
2023/10/03 08:04:12;;;;;;;49.27;6.93;;;;;;;;;;4983783;28;20129;-60
2023/10/03 08:06:41;;;;;;;48.40;6.70;;;;;;;;;;4965763;28;20512;-54
2023/10/03 08:09:08;;;;;;;24.95;5.05;;;;;;;;;;4981050;28;20043;-58
2023/10/03 08:11:36;;;;;;;25.90;5.72;;;;;;;;;;4967167;28;20133;-61
2023/10/03 08:14:14;;;;;;;37.47;5.10;;;;;;;;;;4983775;28;20051;-62
2023/10/03 08:16:41;;;;;;;29.58;5.50;;;;;;;;;;4981376;28;20149;-59
2023/10/03 08:19:09;;;;;;;28.10;5.25;;;;;;;;;;4974376;28;20099;-60
2023/10/03 08:21:35;;;;;;;40.05;5.95;;;;;;;;;;4983279;28;20046;-56
2023/10/03 08:24:09;;;;;;;29.08;5.03;;;;;;;;;;4987573;28;20050;-59
2023/10/03 08:26:37;;;;;;;38.65;5.93;;;;;;;;;;4981510;28;20476;-60
2023/10/03 08:29:04;;;;;;;50.45;6.15;;;;;;;;;;4982105;28;20047;-58
2023/10/03 08:31:32;;;;;;;16.30;4.32;;;;;;;;;;4982752;28;20097;-57
2023/10/03 08:33:59;;;;;;;16.45;4.55;;;;;;;;;;4982315;28;20093;-54
2023/10/03 08:36:31;;;;;;;30.77;4.97;;;;;;;;;;4987721;28;20452;-56
2023/10/03 08:39:12;;;;;;;29.27;5.60;;;;;;;;;;4984190;28;20126;-59
2023/10/03 08:42:15;;;;;;;32.28;5.13;;;;;;;;;;4980653;28;20141;-55
2023/10/03 08:44:42;;;;;;;32.17;5.20;;;;;;;;;;4934216;29;20043;-59
2023/10/03 08:47:11;;;;;;;27.67;4.95;;;;;;;;;;4940305;28;20063;-57
2023/10/03 08:49:39;;;;;;;47.03;5.97;;;;;;;;;;4933279;29;20062;-56
2023/10/03 08:52:06;;;;;;;24.73;5.18;;;;;;;;;;4944078;28;20594;-60
2023/10/03 08:54:37;;;;;;;31.67;5.30;;;;;;;;;;4945940;28;20043;-59
2023/10/03 08:57:04;;;;;;;31.75;5.45;;;;;;;;;;4930313;28;20393;-62
2023/10/03 08:59:31;;;;;;;28.38;5.35;;;;;;;;;;4941719;28;20105;-60
2023/10/03 09:02:01;;;;;;;73.75;7.50;;;;;;;;;;4943887;28;20054;-58
2023/10/03 09:04:38;;;;;;;32.92;4.88;;;;;;;;;;4947324;28;20055;-61
2023/10/03 09:07:10;;;;;;;29.83;5.28;;;;;;;;;;4946994;28;20051;-60
2023/10/03 09:09:41;;;;;;;37.08;5.88;;;;;;;;;;4934516;29;20058;-59
2023/10/03 09:12:08;;;;;;;29.42;5.38;;;;;;;;;;4930770;29;20039;-54
2023/10/03 09:14:37;;;;;;;87.75;8.07;;;;;;;;;;4936406;28;20043;-62
2023/10/03 09:17:05;;;;;;;230.20;16.33;;;;;;;;;;4946347;28;20059;-61
2023/10/03 09:19:42;;;;;;;29.77;4.88;;;;;;;;;;4956637;28;20411;-59
2023/10/03 09:22:08;;;;;;;24.85;4.78;;;;;;;;;;4983398;28;20054;-56
2023/10/03 09:24:43;;;;;;;22.55;5.03;;;;;;;;;;4964166;28;20129;-60
2023/10/03 09:27:20;;;;;;;107.43;9.32;;;;;;;;;;4949566;28;20049;-60
2023/10/03 09:29:49;;;;;;;33.75;5.18;;;;;;;;;;4982141;28;20042;-60
2023/10/03 09:32:19;;;;;;;30.73;5.93;;;;;;;;;;4982123;28;20046;-56
2023/10/03 09:34:56;;;;;;;71.57;7.40;;;;;;;;;;4980897;28;20058;-59
2023/10/03 09:37:29;;;;;;;27.52;4.78;;;;;;;;;;4980897;28;20459;-60
2023/10/03 09:40:00;;;;;;;;;;;;;;;;;;4987596;28;20072;-56
2023/10/03 09:42:30;;;;;;;42.15;5.15;;;;;;;;;;4985031;28;20316;-59
2023/10/03 09:44:59;;;;;;;38.83;5.93;;;;;;;;;;4988017;28;20477;-59
2023/10/03 09:47:30;;;;;;;41.83;5.38;;;;;;;;;;4986216;28;20050;-53
2023/10/03 09:50:06;;;;;;;38.15;6.13;;;;;;;;;;4970563;28;20513;-59
2023/10/03 09:52:35;;;;;;;23.40;4.47;;;;;;;;;;4978712;28;20046;-58
2023/10/03 09:55:17;;;;;;;28.70;5.25;;;;;;;;;;4970583;28;20137;-57
2023/10/03 09:57:52;;;;;;;31.52;5.97;;;;;;;;;;4982956;28;20054;-57
2023/10/03 10:00:50;;;;;;;20.13;5.03;;;;;;;;;;4985455;28;20101;-59
2023/10/03 10:03:28;;;;;;;94.00;8.93;;;;;;;;;;4991332;28;20046;-60
2023/10/03 10:06:00;;;;;;;26.40;5.22;;;;;;;;;;4987343;28;20043;-59
2023/10/03 10:08:32;;;;;;;50.72;6.97;;;;;;;;;;4987461;28;20050;-57
2023/10/03 10:11:09;;;;;;;129.98;11.10;;;;;;;;;;4984066;28;20070;-59
2023/10/03 10:13:37;;;;;;;39.83;6.40;;;;;;;;;;4969454;28;20054;-57
2023/10/03 10:16:20;;;;;;;27.65;5.93;;;;;;;;;;4988627;28;20504;-58
2023/10/03 10:18:51;;;;;;;37.63;6.57;;;;;;;;;;4986039;28;20043;-58
2023/10/03 10:21:22;;;;;;;36.88;6.50;;;;;;;;;;4985711;28;20503;-58
2023/10/03 10:24:07;;;;;;;24.58;4.93;;;;;;;;;;4987686;28;20046;-60
2023/10/03 10:26:34;;;;;;;26.30;5.40;;;;;;;;;;4985077;28;20507;-55
2023/10/03 10:29:05;;;;;;;56.40;7.05;;;;;;;;;;4985808;28;20050;-57
2023/10/03 10:31:37;;;;;;;24.13;5.32;;;;;;;;;;4968809;28;20133;-54
2023/10/03 10:34:30;;;;;;;45.95;6.95;;;;;;;;;;4985323;28;20492;-58
2023/10/03 10:37:02;;;;;;;398.63;32.42;;;;;;;;;;4985290;28;20508;-59
2023/10/03 10:39:49;;;;;;;53.53;6.93;;;;;;;;;;4982267;28;20122;-57
2023/10/03 10:42:16;;;;;;;28.58;6.07;;;;;;;;;;4970441;28;20472;-59
2023/10/03 10:45:01;;;;;;;29.98;5.72;;;;;;;;;;4990333;28;20062;-59
2023/10/03 10:47:28;;;;;;;52.47;7.38;;;;;;;;;;4985174;28;20396;-59
2023/10/03 10:49:55;;;;;;;87.38;9.02;;;;;;;;;;4983630;28;20050;-59
2023/10/03 10:52:52;;;;;;;33.53;6.85;;;;;;;;;;4981635;28;20185;-64
2023/10/03 10:55:20;;;;;;;41.83;6.65;;;;;;;;;;4986622;28;20074;-59
2023/10/03 10:57:59;;;;;;;21.48;5.63;;;;;;;;;;4983696;28;20472;-56
2023/10/03 11:00:26;;;;;;;55.92;6.93;;;;;;;;;;4981709;28;20058;-53
2023/10/03 11:02:52;;;;;;;60.78;7.45;;;;;;;;;;4985308;28;20547;-59
2023/10/03 11:05:19;;;;;;;25.38;5.47;;;;;;;;;;4989251;28;20125;-54
2023/10/03 11:07:53;;;;;;;71.10;8.15;;;;;;;;;;4986363;28;20046;-57
2023/10/03 11:10:21;;;;;;;30.55;9.73;;;;;;;;;;4982657;28;20126;-58
2023/10/03 11:13:04;;;;;;;30.73;6.95;;;;;;;;;;4968404;28;20484;-59
2023/10/03 11:15:31;;;;;;;39.22;8.35;;;;;;;;;;4966481;28;20408;-58
2023/10/03 11:17:58;;;;;;;44.17;5.93;;;;;;;;;;4986183;28;20094;-59
2023/10/03 11:20:26;;;;;;;36.30;9.70;;;;;;;;;;4986215;28;20436;-52
2023/10/03 11:22:53;;;;;;;73.75;9.40;;;;;;;;;;4984200;28;20061;-58
2023/10/03 11:25:21;;;;;;;33.58;6.57;;;;;;;;;;4983253;28;20046;-58
2023/10/03 11:27:48;;;;;;;39.47;8.27;;;;;;;;;;4983039;28;20054;-56
2023/10/03 11:30:15;;;;;;;34.35;10.52;;;;;;;;;;4986328;28;20048;-59
2023/10/03 11:32:43;;;;;;;39.58;8.23;;;;;;;;;;4982274;28;20042;-59
2023/10/03 11:35:17;;;;;;;35.42;5.65;;;;;;;;;;4985036;28;20050;-61
2023/10/03 11:37:44;;;;;;;104.20;10.88;;;;;;;;;;4984733;28;20050;-61
2023/10/03 11:40:13;;;;;;;56.38;7.47;;;;;;;;;;4948939;28;20050;-59
2023/10/03 11:42:43;;;;;;;96.78;10.25;;;;;;;;;;4988220;28;20097;-59
2023/10/03 11:45:13;;;;;;;30.70;5.60;;;;;;;;;;4987538;28;20428;-60
2023/10/03 11:47:40;;;;;;;40.47;6.47;;;;;;;;;;4965021;28;20388;-58
2023/10/03 11:50:09;;;;;;;42.83;6.13;;;;;;;;;;4983565;28;20066;-58
2023/10/03 11:52:37;;;;;;;25.00;5.22;;;;;;;;;;4980677;28;20483;-54
2023/10/03 11:55:09;;;;;;;25.70;5.28;;;;;;;;;;4987743;28;20042;-58
2023/10/03 11:57:35;;;;;;;37.55;7.13;;;;;;;;;;4981262;28;20047;-53
2023/10/03 12:00:07;;;;;;;48.00;7.45;;;;;;;;;;4982607;28;20043;-59
2023/10/03 12:02:36;;;;;;;36.00;6.22;;;;;;;;;;4983234;28;20069;-56
2023/10/03 12:05:04;;;;;;;57.95;7.53;;;;;;;;;;4983314;28;20532;-59
2023/10/03 12:07:31;;;;;;;27.85;6.95;;;;;;;;;;4985460;28;20051;-58
2023/10/03 12:09:59;;;;;;;41.88;6.28;;;;;;;;;;4983309;28;20477;-58
2023/10/03 12:12:29;;;;;;;31.75;5.43;;;;;;;;;;4977647;28;20125;-56
2023/10/03 12:14:55;;;;;;;38.70;6.28;;;;;;;;;;4983859;28;20378;-60
2023/10/03 12:17:22;;;;;;;45.95;6.28;;;;;;;;;;4984817;28;20046;-59
2023/10/03 12:19:49;;;;;;;82.72;8.57;;;;;;;;;;4982394;28;20564;-58
2023/10/03 12:22:17;;;;;;;29.50;5.75;;;;;;;;;;4985472;28;20132;-56
2023/10/03 12:24:43;;;;;;;32.22;5.47;;;;;;;;;;4983964;28;20064;-59
2023/10/03 12:27:11;;;;;;;35.92;6.78;;;;;;;;;;4984144;28;20118;-58
2023/10/03 12:29:37;;;;;;;27.48;5.50;;;;;;;;;;4964037;28;20046;-59
2023/10/03 12:32:05;;;;;;;62.17;7.88;;;;;;;;;;4983462;28;20050;-61
2023/10/03 12:34:34;;;;;;;39.97;6.50;;;;;;;;;;4981672;28;20047;-60
2023/10/03 12:37:04;;;;;;;38.42;5.38;;;;;;;;;;4981504;28;20054;-56
2023/10/03 12:39:31;;;;;;;42.08;6.22;;;;;;;;;;4961312;28;20097;-60
2023/10/03 12:41:58;;;;;;;39.03;6.18;;;;;;;;;;4982917;28;20404;-54
2023/10/03 12:44:26;;;;;;;38.08;6.25;;;;;;;;;;4984655;28;20042;-60
2023/10/03 12:46:52;;;;;;;74.47;8.13;;;;;;;;;;4981384;28;20149;-60
2023/10/03 12:49:20;;;;;;;50.53;7.18;;;;;;;;;;4964145;28;20055;-60
2023/10/03 12:51:46;;;;;;;112.90;12.20;;;;;;;;;;4965988;28;20042;-55
2023/10/03 12:54:13;;;;;;;38.72;5.68;;;;;;;;;;4982984;28;20095;-61
2023/10/03 12:56:40;;;;;;;32.45;5.32;;;;;;;;;;4981489;28;20142;-60
2023/10/03 12:59:07;;;;;;;26.80;4.95;;;;;;;;;;4982623;28;20713;-53
2023/10/03 13:01:34;;;;;;;31.63;5.38;;;;;;;;;;4985530;28;20416;-59
2023/10/03 13:04:01;;;;;;;34.72;5.25;;;;;;;;;;4981413;28;20066;-59
2023/10/03 13:06:28;;;;;;;56.88;6.47;;;;;;;;;;4983156;28;20089;-58
2023/10/03 13:08:55;;;;;;;42.58;6.50;;;;;;;;;;4983941;28;20038;-59
2023/10/03 13:11:22;;;;;;;28.50;5.30;;;;;;;;;;4964359;28;20042;-61
2023/10/03 13:13:50;;;;;;;59.55;7.20;;;;;;;;;;4981921;28;20050;-51
2023/10/03 13:16:16;;;;;;;26.25;5.85;;;;;;;;;;4964367;28;20056;-56
2023/10/03 13:18:44;;;;;;;34.30;6.22;;;;;;;;;;4983693;28;20432;-60
2023/10/03 13:21:11;;;;;;;54.58;7.38;;;;;;;;;;4989159;28;20038;-57
2023/10/03 13:23:39;;;;;;;42.10;5.55;;;;;;;;;;4984731;28;20108;-58
2023/10/03 13:26:06;;;;;;;46.28;6.63;;;;;;;;;;4981303;28;20047;-59
2023/10/03 13:28:33;;;;;;;21.42;4.53;;;;;;;;;;4981772;28;20543;-61
2023/10/03 13:31:00;;;;;;;39.08;6.25;;;;;;;;;;4981200;28;20588;-56
2023/10/03 13:33:27;;;;;;;168.27;14.30;;;;;;;;;;4968029;28;20145;-59
2023/10/03 13:35:54;;;;;;;171.40;11.90;;;;;;;;;;4983074;28;20057;-58
2023/10/03 13:38:21;;;;;;;114.47;10.93;;;;;;;;;;4981490;28;20046;-58
2023/10/03 13:40:48;;;;;;;71.55;7.55;;;;;;;;;;4980049;28;20046;-60
2023/10/03 13:43:17;;;;;;;147.35;13.00;;;;;;;;;;4980094;28;20049;-60
2023/10/03 13:45:47;;;;;;;49.35;6.63;;;;;;;;;;4983725;28;20109;-57
2023/10/03 13:48:13;;;;;;;35.17;7.10;;;;;;;;;;4984529;28;20412;-58
2023/10/03 13:50:40;;;;;;;23.55;5.30;;;;;;;;;;4983095;28;20054;-59
2023/10/03 13:53:09;;;;;;;74.93;9.05;;;;;;;;;;4981460;28;20472;-51
2023/10/03 13:55:36;;;;;;;59.15;26.88;;;;;;;;;;4980941;28;20052;-53
2023/10/03 13:58:04;;;;;;;63.15;11.63;;;;;;;;;;4984170;28;20043;-60
2023/10/03 14:00:35;;;;;;;46.42;8.70;;;;;;;;;;4979266;28;20117;-59
2023/10/03 14:03:09;;;;;;;113.13;8.88;;;;;;;;;;4981592;28;20057;-61
2023/10/03 14:05:35;;;;;;;192.80;15.48;;;;;;;;;;4981180;28;20055;-59
2023/10/03 14:08:03;;;;;;;83.15;8.18;;;;;;;;;;4981945;28;20459;-59
2023/10/03 14:10:30;;;;;;;35.42;5.40;;;;;;;;;;4983601;28;20069;-59
2023/10/03 14:12:58;;;;;;;190.32;25.15;;;;;;;;;;4966277;28;20046;-58
2023/10/03 14:15:27;;;;;;;27.85;6.30;;;;;;;;;;4979114;28;20129;-59
2023/10/03 14:17:55;;;;;;;33.50;6.63;;;;;;;;;;4983482;28;20035;-60
2023/10/03 14:20:23;;;;;;;59.72;8.13;;;;;;;;;;4982196;28;20137;-54
2023/10/03 14:22:51;;;;;;;65.65;8.68;;;;;;;;;;4981471;28;20046;-57
2023/10/03 14:25:20;;;;;;;89.97;8.07;;;;;;;;;;4982281;28;20069;-54
2023/10/03 14:27:46;;;;;;;36.63;5.57;;;;;;;;;;4981995;28;20051;-60
2023/10/03 14:30:13;;;;;;;43.47;5.63;;;;;;;;;;4983429;28;20046;-59
2023/10/03 14:32:41;;;;;;;91.22;8.77;;;;;;;;;;4985210;28;20499;-60
2023/10/03 14:35:09;;;;;;;59.90;6.47;;;;;;;;;;4985196;28;20539;-57
2023/10/03 14:37:36;;;;;;;157.48;14.18;;;;;;;;;;4969161;28;20051;-54
2023/10/03 14:40:09;;;;;;;37.97;5.00;;;;;;;;;;4989182;28;20121;-59
2023/10/03 14:42:37;;;;;;;33.08;5.25;;;;;;;;;;4984504;28;20043;-57
2023/10/03 14:45:06;;;;;;;37.63;4.72;;;;;;;;;;4984751;28;20067;-61